Time;durP1;ratioP1;P1;durP2;ratioP2;P2;SDS_P1;SDS_P2;PMS_P1;PMS_P2;Temp;Humidity;BMP_temperature;BMP_pressure;BME280_temperature;BME280_humidity;BME280_pressure;Samples;Min_cycle;Max_cycle;Signal;HPM_P1;HPM_P2
2022/01/07 00:00:20;;;;;;;3.07;2.60;;;;;18.20;100462.00;;;;2088256;28;20220;-54
2022/01/07 00:01:22;;;;;;;2.95;2.60;;;;;18.20;100469.00;;;;2085731;28;20843;-54
2022/01/07 00:02:23;;;;;;;3.22;2.22;;;;;18.20;100453.00;;;;2088190;28;20221;-54
2022/01/07 00:03:23;;;;;;;3.00;2.10;;;;;18.20;100459.00;;;;2088306;28;20205;-54
2022/01/07 00:04:23;;;;;;;3.13;2.77;;;;;18.20;100460.00;;;;2088269;28;20240;-54
2022/01/07 00:05:24;;;;;;;2.50;2.17;;;;;18.20;100449.00;;;;2088237;28;20209;-54
2022/01/07 00:06:24;;;;;;;3.80;2.43;;;;;18.20;100460.00;;;;2084988;28;20224;-54
2022/01/07 00:07:25;;;;;;;2.53;2.23;;;;;18.20;100458.00;;;;2088329;28;20247;-54
2022/01/07 00:08:26;;;;;;;3.73;2.50;;;;;18.20;100453.00;;;;2088446;28;20216;-54
2022/01/07 00:09:26;;;;;;;2.10;1.90;;;;;18.20;100448.00;;;;2087662;28;20209;-54
2022/01/07 00:10:27;;;;;;;3.00;2.07;;;;;18.20;100445.00;;;;2087237;28;20213;-54
2022/01/07 00:11:27;;;;;;;3.00;2.30;;;;;18.20;100439.00;;;;2081506;28;20224;-54
2022/01/07 00:12:27;;;;;;;2.50;2.27;;;;;18.20;100440.00;;;;2087849;28;20326;-54
2022/01/07 00:13:28;;;;;;;2.67;2.43;;;;;18.20;100436.00;;;;2087637;28;20654;-54
2022/01/07 00:14:28;;;;;;;3.07;2.60;;;;;18.20;100439.00;;;;2087935;28;20781;-54
2022/01/07 00:15:28;;;;;;;3.20;2.20;;;;;18.20;100445.00;;;;2088009;28;20205;-54
2022/01/07 00:16:29;;;;;;;3.10;2.30;;;;;18.20;100438.00;;;;2077872;28;20613;-54
2022/01/07 00:17:29;;;;;;;3.40;2.50;;;;;18.20;100434.00;;;;2090751;28;20307;-54
2022/01/07 00:18:29;;;;;;;2.30;2.10;;;;;18.20;100427.00;;;;2089099;28;20213;-54
2022/01/07 00:19:30;;;;;;;3.57;2.30;;;;;18.20;100429.00;;;;2087782;28;20216;-54
2022/01/07 00:20:30;;;;;;;2.23;2.00;;;;;18.20;100424.00;;;;2088003;28;20247;-54
2022/01/07 00:21:30;;;;;;;2.70;2.00;;;;;18.10;100418.00;;;;2088182;28;20216;-54
2022/01/07 00:22:31;;;;;;;3.17;2.27;;;;;18.20;100419.00;;;;2088295;28;20213;-54
2022/01/07 00:23:31;;;;;;;3.10;2.20;;;;;18.10;100421.00;;;;2088232;28;20434;-54
2022/01/07 00:24:31;;;;;;;2.50;2.13;;;;;18.20;100421.00;;;;2087933;28;20259;-54
2022/01/07 00:25:32;;;;;;;2.43;2.10;;;;;18.10;100414.00;;;;2088349;28;20213;-54
2022/01/07 00:26:32;;;;;;;2.37;2.17;;;;;18.20;100426.00;;;;2087900;28;20339;-54
2022/01/07 00:27:32;;;;;;;3.50;2.60;;;;;18.20;100417.00;;;;2087659;28;20220;-54
2022/01/07 00:28:32;;;;;;;3.60;2.30;;;;;18.20;100421.00;;;;2088187;28;20240;-54
2022/01/07 00:29:33;;;;;;;2.67;2.47;;;;;18.10;100405.00;;;;2088276;28;20220;-53
2022/01/07 00:30:33;;;;;;;2.90;2.00;;;;;18.20;100411.00;;;;2088034;28;20235;-54
2022/01/07 00:31:34;;;;;;;3.33;2.63;;;;;18.10;100407.00;;;;2088142;28;20704;-54
2022/01/07 00:32:34;;;;;;;2.70;1.90;;;;;18.20;100409.00;;;;2087897;28;20652;-54
2022/01/07 00:33:34;;;;;;;2.60;2.40;;;;;18.20;100414.00;;;;2084476;28;20264;-54
2022/01/07 00:34:34;;;;;;;4.23;2.73;;;;;18.10;100410.00;;;;2088151;28;20224;-54
2022/01/07 00:35:35;;;;;;;3.40;2.13;;;;;18.10;100405.00;;;;2087121;28;20215;-54
2022/01/07 00:36:35;;;;;;;2.40;1.80;;;;;18.10;100411.00;;;;2088151;28;20212;-54
2022/01/07 00:37:36;;;;;;;2.50;1.97;;;;;18.10;100401.00;;;;2088192;28;20617;-54
2022/01/07 00:38:36;;;;;;;2.40;1.90;;;;;18.10;100408.00;;;;2088217;28;20576;-54
2022/01/07 00:39:36;;;;;;;3.60;2.10;;;;;18.10;100406.00;;;;2088246;28;20244;-54
2022/01/07 00:40:37;;;;;;;3.67;2.10;;;;;18.10;100393.00;;;;2088152;28;20212;-54
2022/01/07 00:41:37;;;;;;;2.30;2.07;;;;;18.10;100404.00;;;;2082046;28;20711;-54
2022/01/07 00:42:37;;;;;;;3.13;2.27;;;;;18.10;100391.00;;;;2087813;28;20205;-54
2022/01/07 00:43:38;;;;;;;3.30;2.40;;;;;18.10;100390.00;;;;2087924;28;20220;-54
2022/01/07 00:44:38;;;;;;;2.07;1.63;;;;;18.10;100389.00;;;;2088129;28;20247;-54
2022/01/07 00:45:39;;;;;;;2.10;1.80;;;;;18.10;100400.00;;;;2088297;28;20224;-54
2022/01/07 00:46:39;;;;;;;2.53;1.90;;;;;18.10;100392.00;;;;2085380;28;20233;-54
2022/01/07 00:47:39;;;;;;;3.90;2.60;;;;;18.10;100385.00;;;;2087488;28;20216;-54
2022/01/07 00:48:40;;;;;;;3.27;2.27;;;;;18.10;100386.00;;;;2088043;28;20692;-54
2022/01/07 00:49:40;;;;;;;2.37;2.17;;;;;18.10;100386.00;;;;2088203;28;20617;-54
2022/01/07 00:50:40;;;;;;;2.30;2.10;;;;;18.10;100375.00;;;;2087917;28;20301;-54
2022/01/07 00:51:41;;;;;;;3.40;2.30;;;;;18.10;100386.00;;;;2087911;28;20220;-54
2022/01/07 00:52:41;;;;;;;3.27;2.10;;;;;18.10;100380.00;;;;2087788;28;20241;-54
2022/01/07 00:53:42;;;;;;;2.00;1.67;;;;;18.10;100379.00;;;;2087825;28;20243;-54
2022/01/07 00:54:42;;;;;;;3.17;2.10;;;;;18.10;100373.00;;;;2085874;28;20633;-54
2022/01/07 00:55:42;;;;;;;2.80;2.07;;;;;18.10;100376.00;;;;2087573;28;20247;-54
2022/01/07 00:56:43;;;;;;;3.13;2.10;;;;;18.10;100365.00;;;;2085634;28;20700;-54
2022/01/07 00:57:43;;;;;;;2.10;1.67;;;;;18.10;100365.00;;;;2087859;28;20257;-54
2022/01/07 00:58:43;;;;;;;3.47;2.60;;;;;18.10;100361.00;;;;2087453;28;20232;-54
2022/01/07 00:59:47;;;;;;;3.83;2.40;;;;;18.10;100363.00;;;;2087492;28;20223;-54
2022/01/07 01:00:47;;;;;;;2.90;2.00;;;;;18.10;100355.00;;;;2077641;28;20664;-54
2022/01/07 01:01:47;;;;;;;3.77;2.33;;;;;18.10;100349.00;;;;2091643;28;20256;-54
2022/01/07 01:02:48;;;;;;;2.63;2.00;;;;;18.10;100359.00;;;;2095170;28;20279;-54
2022/01/07 01:03:48;;;;;;;2.70;1.87;;;;;18.10;100354.00;;;;2092295;28;20952;-54
2022/01/07 01:04:49;;;;;;;2.67;2.20;;;;;18.10;100365.00;;;;2088456;28;20227;-54
2022/01/07 01:05:49;;;;;;;2.47;2.27;;;;;18.10;100352.00;;;;2088081;28;20212;-54
2022/01/07 01:06:49;;;;;;;2.00;1.70;;;;;18.10;100356.00;;;;2087823;28;20248;-54
2022/01/07 01:07:50;;;;;;;3.70;2.37;;;;;18.10;100352.00;;;;2087709;28;20216;-54
2022/01/07 01:08:50;;;;;;;2.90;1.97;;;;;18.10;100352.00;;;;2087708;28;20220;-54
2022/01/07 01:09:50;;;;;;;2.10;1.90;;;;;18.10;100354.00;;;;2087395;28;20216;-54
2022/01/07 01:10:51;;;;;;;2.53;1.97;;;;;18.10;100358.00;;;;2087208;28;20266;-54
2022/01/07 01:11:51;;;;;;;2.50;2.00;;;;;18.10;100353.00;;;;2087731;28;20217;-54
2022/01/07 01:12:53;;;;;;;2.93;2.20;;;;;18.10;100357.00;;;;2087492;28;20217;-54
2022/01/07 01:13:53;;;;;;;2.25;1.88;;;;;18.10;100354.00;;;;2087841;28;20300;-54
2022/01/07 01:14:53;;;;;;;2.60;1.77;;;;;18.10;100352.00;;;;2087633;28;20215;-54
2022/01/07 01:15:53;;;;;;;2.37;1.90;;;;;18.10;100345.00;;;;2087626;28;20263;-54
2022/01/07 01:16:55;;;;;;;2.07;1.87;;;;;18.10;100352.00;;;;2084340;28;20314;-53
2022/01/07 01:17:57;;;;;;;2.20;1.80;;;;;18.10;100355.00;;;;2086292;28;20209;-56
2022/01/07 01:18:57;;;;;;;1.67;1.55;;;;;18.10;100352.00;;;;2086349;28;20212;-54
2022/01/07 01:19:58;;;;;;;2.77;2.00;;;;;18.10;100352.00;;;;2087404;28;20595;-54
2022/01/07 01:20:59;;;;;;;2.53;2.00;;;;;18.10;100347.00;;;;2087203;28;20585;-54
2022/01/07 01:21:59;;;;;;;2.00;1.80;;;;;18.10;100350.00;;;;2085413;28;20213;-54
2022/01/07 01:22:59;;;;;;;2.53;2.00;;;;;18.10;100343.00;;;;2077810;28;20483;-55
2022/01/07 01:24:00;;;;;;;2.47;1.80;;;;;18.10;100337.00;;;;2082971;28;20217;-54
2022/01/07 01:25:00;;;;;;;2.20;1.80;;;;;18.10;100347.00;;;;2086198;28;20347;-54
2022/01/07 01:26:00;;;;;;;1.70;1.53;;;;;18.00;100352.00;;;;2086785;28;20212;-53
2022/01/07 01:27:01;;;;;;;2.50;2.00;;;;;18.10;100343.00;;;;2088697;28;20563;-54
2022/01/07 01:28:01;;;;;;;1.80;1.70;;;;;18.10;100349.00;;;;2085280;28;20717;-54
2022/01/07 01:29:02;;;;;;;2.37;1.70;;;;;18.10;100342.00;;;;2088840;28;20626;-54
2022/01/07 01:30:04;;;;;;;3.20;2.00;;;;;18.10;100338.00;;;;2089298;28;20611;-54
2022/01/07 01:31:04;;;;;;;1.90;1.63;;;;;18.10;100341.00;;;;2088541;28;20299;-54
2022/01/07 01:32:05;;;;;;;2.43;2.13;;;;;18.10;100348.00;;;;2080372;28;20227;-54
2022/01/07 01:33:05;;;;;;;2.60;1.83;;;;;18.10;100343.00;;;;2085105;28;20914;-53
2022/01/07 01:34:05;;;;;;;2.10;1.70;;;;;18.00;100339.00;;;;2089706;28;20722;-54
2022/01/07 01:35:06;;;;;;;2.47;1.90;;;;;18.10;100335.00;;;;2089618;28;20208;-54
2022/01/07 01:36:08;;;;;;;2.13;1.50;;;;;18.00;100318.00;;;;2089532;28;20223;-54
2022/01/07 01:37:09;;;;;;;2.75;1.95;;;;;18.00;100339.00;;;;2088895;28;20443;-54
2022/01/07 01:38:09;;;;;;;1.60;1.47;;;;;18.00;100333.00;;;;2089043;28;20714;-54
2022/01/07 01:39:12;;;;;;;2.50;2.07;;;;;18.00;100325.00;;;;2089031;28;20700;-54
2022/01/07 01:40:12;;;;;;;2.75;2.15;;;;;18.00;100322.00;;;;2085475;28;20254;-53
2022/01/07 01:41:13;;;;;;;2.83;1.80;;;;;18.00;100320.00;;;;2088597;28;20228;-54
2022/01/07 01:42:13;;;;;;;1.97;1.87;;;;;18.00;100316.00;;;;2089074;28;20704;-54
2022/01/07 01:43:13;;;;;;;2.57;1.87;;;;;18.00;100324.00;;;;2088939;28;20201;-54
2022/01/07 01:44:14;;;;;;;2.27;2.07;;;;;18.00;100317.00;;;;2088953;28;20205;-54
2022/01/07 01:45:16;;;;;;;2.60;1.90;;;;;18.00;100318.00;;;;2088895;28;20704;-53
2022/01/07 01:46:17;;;;;;;2.00;1.80;;;;;18.00;100314.00;;;;2089035;28;20216;-54
2022/01/07 01:47:17;;;;;;;3.20;1.73;;;;;18.00;100310.00;;;;2086711;28;20209;-54
2022/01/07 01:48:19;;;;;;;1.90;1.70;;;;;18.00;100310.00;;;;2085540;28;20215;-54
2022/01/07 01:49:19;;;;;;;2.63;1.70;;;;;18.00;100297.00;;;;2081133;28;20216;-54
2022/01/07 01:50:19;;;;;;;2.20;1.70;;;;;18.00;100307.00;;;;2092505;28;20251;-54
2022/01/07 01:51:20;;;;;;;2.03;1.70;;;;;18.00;100308.00;;;;2087169;28;20213;-54
2022/01/07 01:52:20;;;;;;;1.83;1.70;;;;;18.00;100301.00;;;;2077680;28;20220;-54
2022/01/07 01:53:20;;;;;;;2.57;2.07;;;;;18.00;100304.00;;;;2088264;28;20216;-54
2022/01/07 01:54:21;;;;;;;2.97;2.03;;;;;18.00;100300.00;;;;2089110;28;20205;-54
2022/01/07 01:55:22;;;;;;;2.00;1.80;;;;;18.00;100292.00;;;;2082256;28;20259;-54
2022/01/07 01:56:23;;;;;;;2.30;2.08;;;;;18.00;100287.00;;;;2092404;28;20221;-53
2022/01/07 01:57:23;;;;;;;2.63;2.13;;;;;18.00;100286.00;;;;2087980;28;20240;-54
2022/01/07 01:58:23;;;;;;;1.73;1.63;;;;;18.00;100288.00;;;;2088874;28;20212;-54
2022/01/07 01:59:27;;;;;;;1.90;1.60;;;;;18.00;100287.00;;;;2085022;28;20223;-53
2022/01/07 02:00:28;;;;;;;2.38;1.90;;;;;18.00;100287.00;;;;2076524;28;20244;-54
2022/01/07 02:01:28;;;;;;;2.53;1.77;;;;;18.00;100286.00;;;;2088884;28;20213;-54
2022/01/07 02:02:28;;;;;;;2.10;1.63;;;;;18.00;100290.00;;;;2087052;28;20208;-53
2022/01/07 02:03:29;;;;;;;2.03;1.70;;;;;18.00;100285.00;;;;2089370;28;20209;-54
2022/01/07 02:04:30;;;;;;;1.97;1.63;;;;;18.00;100296.00;;;;2089377;28;20216;-54
2022/01/07 02:05:30;;;;;;;2.43;1.70;;;;;18.00;100287.00;;;;2088646;28;20559;-54
2022/01/07 02:06:30;;;;;;;2.23;2.00;;;;;18.00;100283.00;;;;2088625;28;20459;-54
2022/01/07 02:07:35;;;;;;;2.10;1.90;;;;;18.00;100286.00;;;;2072706;28;20209;-54
2022/01/07 02:08:36;;;;;;;2.38;1.60;;;;;18.00;100290.00;;;;2084566;28;20213;-54
2022/01/07 02:09:37;;;;;;;2.70;1.83;;;;;18.00;100284.00;;;;2086505;28;20212;-54
2022/01/07 02:10:37;;;;;;;1.87;1.60;;;;;18.00;100288.00;;;;2080372;28;20229;-55
2022/01/07 02:11:37;;;;;;;3.20;2.00;;;;;18.00;100288.00;;;;2092008;28;20708;-54
2022/01/07 02:12:38;;;;;;;2.30;1.60;;;;;18.00;100283.00;;;;2088824;28;20665;-54
2022/01/07 02:13:38;;;;;;;2.90;1.80;;;;;18.00;100284.00;;;;2089332;28;20589;-55
2022/01/07 02:14:48;;;;;;;2.63;1.77;;;;;18.00;100281.00;;;;2089235;28;20248;-54
2022/01/07 02:15:48;;;;;;;2.45;1.70;;;;;18.00;100272.00;;;;2076805;28;20283;-54
2022/01/07 02:16:49;;;;;;;2.17;1.97;;;;;18.00;100283.00;;;;2081249;28;20268;-53
2022/01/07 02:17:49;;;;;;;2.23;1.70;;;;;18.00;100277.00;;;;2088542;28;20220;-54
2022/01/07 02:18:49;;;;;;;2.60;2.00;;;;;18.00;100284.00;;;;2089158;28;20205;-54
2022/01/07 02:19:50;;;;;;;2.63;1.70;;;;;18.00;100278.00;;;;2087826;28;20891;-54
2022/01/07 02:20:50;;;;;;;2.10;1.70;;;;;18.00;100278.00;;;;2087787;28;20655;-54
2022/01/07 02:21:51;;;;;;;2.13;1.37;;;;;18.00;100271.00;;;;2088981;28;20244;-54
2022/01/07 02:22:52;;;;;;;2.27;1.63;;;;;18.00;100270.00;;;;2088350;28;20217;-54
2022/01/07 02:23:52;;;;;;;2.00;1.80;;;;;18.00;100276.00;;;;2088655;28;20258;-54
2022/01/07 02:24:53;;;;;;;1.70;1.50;;;;;18.00;100277.00;;;;2088870;28;20700;-54
2022/01/07 02:25:55;;;;;;;2.10;1.90;;;;;18.00;100268.00;;;;2088558;28;20589;-54
2022/01/07 02:26:56;;;;;;;2.30;1.80;;;;;18.00;100271.00;;;;2088292;28;20700;-54
2022/01/07 02:27:56;;;;;;;2.27;1.80;;;;;18.00;100269.00;;;;2085173;28;20217;-54
2022/01/07 02:28:56;;;;;;;2.80;1.70;;;;;18.00;100267.00;;;;2088925;28;20797;-54
2022/01/07 02:29:58;;;;;;;1.93;1.60;;;;;18.00;100270.00;;;;2089224;28;20294;-54
2022/01/07 02:30:58;;;;;;;1.90;1.50;;;;;18.00;100266.00;;;;2087370;28;20278;-54
2022/01/07 02:31:58;;;;;;;1.70;1.30;;;;;18.00;100263.00;;;;2089069;28;20270;-54
2022/01/07 02:32:59;;;;;;;3.17;1.60;;;;;18.00;100253.00;;;;2087478;28;20231;-54
2022/01/07 02:33:59;;;;;;;1.87;1.40;;;;;18.00;100256.00;;;;2089003;28;20232;-54
2022/01/07 02:34:59;;;;;;;2.10;1.67;;;;;18.00;100253.00;;;;2088794;28;20246;-54
2022/01/07 02:36:07;;;;;;;2.30;2.10;;;;;18.00;100259.00;;;;2078392;28;20230;-54
2022/01/07 02:37:07;;;;;;;2.20;1.52;;;;;18.00;100260.00;;;;2085762;28;20213;-54
2022/01/07 02:38:08;;;;;;;3.27;1.77;;;;;18.00;100255.00;;;;2078937;28;20692;-54
2022/01/07 02:39:08;;;;;;;2.07;1.60;;;;;18.00;100253.00;;;;2091971;28;20243;-53
2022/01/07 02:40:09;;;;;;;1.97;1.53;;;;;18.00;100260.00;;;;2089092;28;20222;-54
2022/01/07 02:41:09;;;;;;;1.90;1.70;;;;;18.00;100258.00;;;;2088304;28;20216;-54
2022/01/07 02:42:09;;;;;;;1.80;1.57;;;;;18.00;100254.00;;;;2088739;28;20680;-54
2022/01/07 02:43:10;;;;;;;1.90;1.70;;;;;18.00;100258.00;;;;2087838;28;20220;-54
2022/01/07 02:44:10;;;;;;;2.47;1.60;;;;;18.00;100246.00;;;;2079513;28;20631;-53
2022/01/07 02:45:11;;;;;;;1.83;1.50;;;;;18.00;100246.00;;;;2087844;28;20216;-54
2022/01/07 02:46:11;;;;;;;1.70;1.43;;;;;18.00;100248.00;;;;2088401;28;20300;-54
2022/01/07 02:47:12;;;;;;;2.23;1.60;;;;;18.00;100245.00;;;;2085136;28;20255;-54
2022/01/07 02:48:12;;;;;;;2.10;1.57;;;;;18.00;100250.00;;;;2088316;28;20213;-54
2022/01/07 02:49:13;;;;;;;2.60;1.70;;;;;17.90;100253.00;;;;2088327;28;20211;-54
2022/01/07 02:50:14;;;;;;;1.95;1.60;;;;;18.00;100232.00;;;;2088094;28;20209;-54
2022/01/07 02:51:14;;;;;;;2.63;1.77;;;;;18.00;100240.00;;;;2088587;28;20567;-55
2022/01/07 02:52:14;;;;;;;1.87;1.63;;;;;18.00;100241.00;;;;2083551;28;20281;-55
2022/01/07 02:53:15;;;;;;;2.03;1.73;;;;;18.00;100239.00;;;;2093484;28;20212;-55
2022/01/07 02:54:15;;;;;;;1.93;1.50;;;;;18.00;100235.00;;;;2096036;28;20850;-54
2022/01/07 02:55:15;;;;;;;1.70;1.60;;;;;18.00;100244.00;;;;2088374;28;20759;-55
2022/01/07 02:56:16;;;;;;;2.23;1.83;;;;;18.00;100231.00;;;;2087336;28;20574;-54
2022/01/07 02:57:16;;;;;;;2.27;1.40;;;;;18.00;100244.00;;;;2085737;28;20247;-54
2022/01/07 02:58:17;;;;;;;2.03;1.60;;;;;18.00;100240.00;;;;2087680;28;20212;-54
2022/01/07 02:59:17;;;;;;;2.37;1.80;;;;;17.90;100238.00;;;;2088670;28;20278;-55
2022/01/07 03:00:18;;;;;;;1.80;1.60;;;;;18.00;100244.00;;;;2088050;28;20213;-54
2022/01/07 03:01:18;;;;;;;1.70;1.60;;;;;17.90;100235.00;;;;2088447;28;20205;-54
2022/01/07 03:02:19;;;;;;;1.67;1.53;;;;;17.90;100242.00;;;;2086171;28;20216;-54
2022/01/07 03:03:19;;;;;;;2.37;1.80;;;;;17.90;100224.00;;;;2088389;28;20220;-54
2022/01/07 03:04:19;;;;;;;1.63;1.53;;;;;17.90;100224.00;;;;2088347;28;20220;-54
2022/01/07 03:05:20;;;;;;;1.97;1.50;;;;;17.90;100228.00;;;;2088585;28;20215;-54
2022/01/07 03:06:23;;;;;;;1.53;1.43;;;;;17.90;100227.00;;;;2088401;28;20216;-54
2022/01/07 03:07:23;;;;;;;2.35;1.60;;;;;18.00;100225.00;;;;2088544;28;20209;-54
2022/01/07 03:08:24;;;;;;;2.27;1.80;;;;;17.90;100220.00;;;;2087756;28;20201;-54
2022/01/07 03:09:24;;;;;;;1.77;1.43;;;;;18.00;100210.00;;;;2087712;28;20452;-54
2022/01/07 03:10:26;;;;;;;2.73;1.50;;;;;17.90;100218.00;;;;2086922;28;20401;-54
2022/01/07 03:11:26;;;;;;;2.20;1.63;;;;;17.90;100211.00;;;;2088632;28;20212;-54
2022/01/07 03:12:26;;;;;;;2.93;1.57;;;;;17.90;100213.00;;;;2079177;28;20223;-54
2022/01/07 03:13:27;;;;;;;1.77;1.63;;;;;17.90;100203.00;;;;2095995;28;20291;-54
2022/01/07 03:14:27;;;;;;;1.97;1.50;;;;;17.90;100202.00;;;;2095500;28;20208;-54
2022/01/07 03:15:28;;;;;;;1.87;1.57;;;;;17.90;100205.00;;;;2088854;28;20216;-54
2022/01/07 03:16:28;;;;;;;2.53;1.60;;;;;17.90;100203.00;;;;2088891;28;20223;-54
2022/01/07 03:17:28;;;;;;;2.10;1.33;;;;;17.90;100201.00;;;;2088453;28;20269;-54
2022/01/07 03:18:29;;;;;;;1.87;1.50;;;;;17.90;100195.00;;;;2087702;28;20217;-54
2022/01/07 03:19:29;;;;;;;1.97;1.57;;;;;17.90;100193.00;;;;2089073;28;20258;-54
2022/01/07 03:20:38;;;;;;;2.37;1.40;;;;;17.90;100199.00;;;;2088656;28;20221;-54
2022/01/07 03:21:38;;;;;;;1.52;1.35;;;;;17.90;100186.00;;;;2086063;28;20213;-54
2022/01/07 03:22:39;;;;;;;2.20;1.80;;;;;17.90;100185.00;;;;2086751;28;20746;-54
2022/01/07 03:23:40;;;;;;;1.70;1.43;;;;;17.90;100191.00;;;;2088919;28;20213;-54
2022/01/07 03:24:41;;;;;;;1.45;1.25;;;;;18.00;100188.00;;;;2087560;28;20252;-54
2022/01/07 03:25:41;;;;;;;2.83;1.50;;;;;17.90;100193.00;;;;2088606;28;20216;-54
2022/01/07 03:26:41;;;;;;;3.00;2.00;;;;;17.90;100191.00;;;;2088531;28;20209;-54
2022/01/07 03:27:42;;;;;;;2.10;1.33;;;;;18.00;100181.00;;;;2088512;28;20232;-54
2022/01/07 03:28:44;;;;;;;2.03;1.50;;;;;17.90;100177.00;;;;2088125;28;20209;-54
2022/01/07 03:29:44;;;;;;;2.38;1.55;;;;;17.90;100176.00;;;;2088012;28;20276;-53
2022/01/07 03:30:46;;;;;;;1.70;1.53;;;;;17.90;100177.00;;;;2088088;28;20721;-54
2022/01/07 03:31:46;;;;;;;2.35;1.52;;;;;17.90;100170.00;;;;2088331;28;20692;-54
2022/01/07 03:32:47;;;;;;;1.80;1.37;;;;;17.90;100165.00;;;;2088321;28;20213;-54
2022/01/07 03:33:47;;;;;;;1.90;1.70;;;;;17.90;100156.00;;;;2088208;28;20215;-54
2022/01/07 03:34:47;;;;;;;1.97;1.40;;;;;17.90;100155.00;;;;2088171;28;20871;-54
2022/01/07 03:35:48;;;;;;;2.07;1.40;;;;;17.90;100149.00;;;;2088391;28;20633;-53
2022/01/07 03:36:48;;;;;;;2.50;1.37;;;;;17.90;100152.00;;;;2088026;28;20634;-54
2022/01/07 03:37:49;;;;;;;2.40;1.77;;;;;17.90;100153.00;;;;2087650;28;20654;-54
2022/01/07 03:38:50;;;;;;;1.95;1.50;;;;;17.90;100154.00;;;;2080052;28;20599;-54
2022/01/07 03:39:50;;;;;;;1.43;1.23;;;;;17.90;100153.00;;;;2100647;28;20232;-54
2022/01/07 03:40:50;;;;;;;1.43;1.30;;;;;17.90;100153.00;;;;2090225;28;20208;-54
2022/01/07 03:41:51;;;;;;;2.30;1.50;;;;;17.90;100144.00;;;;2088276;28;20217;-54
2022/01/07 03:42:51;;;;;;;2.13;1.43;;;;;17.90;100130.00;;;;2088136;28;20217;-54
2022/01/07 03:43:52;;;;;;;2.07;1.30;;;;;17.90;100133.00;;;;2088069;28;20212;-54
2022/01/07 03:44:52;;;;;;;2.30;1.20;;;;;17.90;100122.00;;;;2088040;28;20241;-54
2022/01/07 03:45:52;;;;;;;1.60;1.40;;;;;17.90;100128.00;;;;2088634;28;20213;-54
2022/01/07 03:46:53;;;;;;;1.37;1.20;;;;;17.90;100115.00;;;;2088665;28;20274;-54
2022/01/07 03:47:53;;;;;;;2.37;1.53;;;;;17.90;100125.00;;;;2088629;28;20212;-54
2022/01/07 03:48:53;;;;;;;1.47;1.20;;;;;17.90;100122.00;;;;2087651;28;20232;-54
2022/01/07 03:49:54;;;;;;;2.10;1.50;;;;;17.90;100124.00;;;;2087579;28;20656;-57
2022/01/07 03:50:54;;;;;;;1.73;1.27;;;;;17.90;100123.00;;;;2088330;28;20212;-57
2022/01/07 03:51:55;;;;;;;1.80;1.60;;;;;17.90;100125.00;;;;2087627;28;20212;-56
2022/01/07 03:52:55;;;;;;;1.50;1.13;;;;;17.90;100126.00;;;;2083889;28;20216;-55
2022/01/07 03:53:56;;;;;;;1.53;1.40;;;;;17.90;100126.00;;;;2087334;28;20205;-54
2022/01/07 03:54:56;;;;;;;1.73;1.30;;;;;17.90;100114.00;;;;2088710;28;20455;-54
2022/01/07 03:55:56;;;;;;;2.33;1.60;;;;;17.90;100115.00;;;;2088487;28;20220;-54
2022/01/07 03:56:57;;;;;;;2.37;1.40;;;;;17.90;100110.00;;;;2084772;28;20240;-54
2022/01/07 03:57:57;;;;;;;2.07;1.70;;;;;17.90;100104.00;;;;2088599;28;20219;-54
2022/01/07 03:58:57;;;;;;;1.90;1.40;;;;;17.90;100110.00;;;;2088774;28;20258;-54
2022/01/07 03:59:58;;;;;;;1.97;1.60;;;;;17.90;100109.00;;;;2088601;28;20237;-54
2022/01/07 04:00:58;;;;;;;1.70;1.43;;;;;17.90;100099.00;;;;2088361;28;20215;-54
2022/01/07 04:01:58;;;;;;;1.50;1.40;;;;;17.90;100104.00;;;;2088506;28;20204;-54
2022/01/07 04:03:00;;;;;;;2.60;1.37;;;;;17.90;100105.00;;;;2088618;28;20794;-54
2022/01/07 04:04:01;;;;;;;1.73;1.35;;;;;17.90;100097.00;;;;2088333;28;20240;-54
2022/01/07 04:05:01;;;;;;;1.57;1.27;;;;;17.90;100102.00;;;;2088226;28;20220;-54
2022/01/07 04:06:01;;;;;;;2.40;1.60;;;;;17.90;100107.00;;;;2087712;28;20201;-54
2022/01/07 04:07:02;;;;;;;1.67;1.40;;;;;17.90;100101.00;;;;2087931;28;20213;-54
2022/01/07 04:08:04;;;;;;;1.70;1.30;;;;;17.90;100100.00;;;;2088180;28;20692;-54
2022/01/07 04:09:04;;;;;;;2.08;1.63;;;;;17.90;100104.00;;;;2088538;28;20258;-54
2022/01/07 04:10:05;;;;;;;1.80;1.40;;;;;17.90;100099.00;;;;2093998;28;20225;-54
2022/01/07 04:11:05;;;;;;;1.53;1.30;;;;;17.90;100095.00;;;;2095204;28;20212;-55
2022/01/07 04:12:06;;;;;;;1.73;1.60;;;;;17.80;100094.00;;;;2091738;28;20220;-54
2022/01/07 04:13:06;;;;;;;1.40;1.20;;;;;17.90;100093.00;;;;2088022;28;20201;-54
2022/01/07 04:14:06;;;;;;;1.70;1.37;;;;;17.90;100100.00;;;;2088540;28;20201;-54
2022/01/07 04:15:08;;;;;;;1.43;1.20;;;;;17.90;100095.00;;;;2088330;28;20220;-54
2022/01/07 04:16:08;;;;;;;1.30;1.20;;;;;17.90;100099.00;;;;2088199;28;20205;-54
2022/01/07 04:17:08;;;;;;;1.57;1.20;;;;;17.90;100095.00;;;;2088286;28;20201;-54
2022/01/07 04:18:09;;;;;;;3.13;1.40;;;;;17.90;100089.00;;;;2088355;28;20262;-54
2022/01/07 04:19:09;;;;;;;2.10;1.43;;;;;17.90;100098.00;;;;2088294;28;20213;-54
2022/01/07 04:20:11;;;;;;;1.93;1.30;;;;;17.90;100098.00;;;;2088200;28;20216;-54
2022/01/07 04:21:11;;;;;;;1.90;1.50;;;;;17.90;100081.00;;;;2088241;28;20624;-54
2022/01/07 04:22:11;;;;;;;1.60;1.47;;;;;17.90;100093.00;;;;2088236;28;20270;-53
2022/01/07 04:23:12;;;;;;;2.57;1.60;;;;;17.80;100091.00;;;;2088353;28;20216;-54
2022/01/07 04:24:12;;;;;;;2.23;1.50;;;;;17.90;100088.00;;;;2088313;28;20240;-54
2022/01/07 04:25:17;;;;;;;1.50;1.37;;;;;17.80;100084.00;;;;2088069;28;20209;-54
2022/01/07 04:26:17;;;;;;;2.00;1.65;;;;;17.90;100078.00;;;;2088238;28;20205;-54
2022/01/07 04:27:17;;;;;;;1.37;1.27;;;;;17.80;100074.00;;;;2088301;28;20255;-54
2022/01/07 04:28:19;;;;;;;1.77;1.60;;;;;17.80;100068.00;;;;2088357;28;20215;-54
2022/01/07 04:29:20;;;;;;;1.60;1.40;;;;;17.80;100068.00;;;;2088229;28;20212;-54
2022/01/07 04:30:20;;;;;;;1.97;1.50;;;;;17.90;100081.00;;;;2087924;28;20216;-54
2022/01/07 04:31:21;;;;;;;1.53;1.27;;;;;17.80;100076.00;;;;2087332;28;20213;-54
2022/01/07 04:32:21;;;;;;;2.40;1.70;;;;;17.80;100069.00;;;;2087571;28;20275;-54
2022/01/07 04:33:26;;;;;;;1.50;1.23;;;;;17.80;100076.00;;;;2088194;28;20216;-54
2022/01/07 04:34:26;;;;;;;1.88;1.25;;;;;17.80;100076.00;;;;2088127;28;20287;-54
2022/01/07 04:35:26;;;;;;;1.50;1.30;;;;;17.80;100067.00;;;;2088295;28;20209;-54
2022/01/07 04:36:27;;;;;;;2.30;1.20;;;;;17.80;100076.00;;;;2088082;28;20252;-54
2022/01/07 04:37:27;;;;;;;1.67;1.33;;;;;17.80;100069.00;;;;2088180;28;20233;-54
2022/01/07 04:38:27;;;;;;;2.07;1.40;;;;;17.90;100066.00;;;;2088214;28;20220;-54
2022/01/07 04:39:28;;;;;;;1.20;1.00;;;;;17.80;100064.00;;;;2088030;28;20216;-54
2022/01/07 04:40:28;;;;;;;1.60;1.27;;;;;17.80;100067.00;;;;2088006;28;20213;-54
2022/01/07 04:41:28;;;;;;;1.50;1.30;;;;;17.90;100074.00;;;;2088032;28;20212;-54
2022/01/07 04:42:29;;;;;;;1.40;1.20;;;;;17.90;100056.00;;;;2088043;28;20243;-54
2022/01/07 04:43:29;;;;;;;2.60;1.50;;;;;17.90;100063.00;;;;2088697;28;20576;-54
2022/01/07 04:44:29;;;;;;;1.73;1.20;;;;;17.80;100063.00;;;;2088033;28;20213;-54
2022/01/07 04:45:30;;;;;;;2.70;1.50;;;;;17.80;100059.00;;;;2088105;28;20224;-54
2022/01/07 04:46:30;;;;;;;2.33;1.50;;;;;17.80;100065.00;;;;2088005;28;20241;-53
2022/01/07 04:47:31;;;;;;;1.67;1.20;;;;;17.80;100056.00;;;;2088130;28;20750;-54
2022/01/07 04:48:32;;;;;;;2.10;1.58;;;;;17.80;100057.00;;;;2088208;28;20236;-54
2022/01/07 04:49:32;;;;;;;1.60;1.37;;;;;17.80;100054.00;;;;2087719;28;20320;-54
2022/01/07 04:50:33;;;;;;;1.50;1.33;;;;;17.80;100060.00;;;;2087163;28;20591;-56
2022/01/07 04:51:33;;;;;;;1.80;1.00;;;;;17.80;100060.00;;;;2088050;28;20209;-55
2022/01/07 04:52:33;;;;;;;1.37;1.13;;;;;17.80;100056.00;;;;2088115;28;20683;-54
2022/01/07 04:53:34;;;;;;;1.50;1.20;;;;;17.80;100062.00;;;;2088253;28;20925;-55
2022/01/07 04:54:34;;;;;;;1.67;1.07;;;;;17.80;100063.00;;;;2087143;28;20212;-55
2022/01/07 04:55:38;;;;;;;2.00;1.30;;;;;17.90;100061.00;;;;2088042;28;20205;-54
2022/01/07 04:56:38;;;;;;;1.75;1.63;;;;;17.90;100067.00;;;;2080838;28;20583;-54
2022/01/07 04:57:38;;;;;;;1.83;1.37;;;;;17.90;100060.00;;;;2080644;28;20220;-54
2022/01/07 04:58:39;;;;;;;2.40;1.23;;;;;17.80;100062.00;;;;2091207;28;20603;-54
2022/01/07 04:59:39;;;;;;;2.00;1.37;;;;;17.90;100060.00;;;;2090489;28;20242;-54